福島空港の過去48時間の天気

福島空港 (Fukushima)

現在時刻: 1/19 20:32 JST (1/19 11:32 UTC) 以下の時間は現地時間です。

過去48時間のMETAR気象情報
時間 風向 風速(m/s) 視程 気温(℃) 湿度(%) 気圧(hPa) 天気現象
19 20:00 3 10km以上 1 69 1018
19 19:00 北北西 4 10km以上 2 64 1018 弱いしゅう雪
19 18:00 北北西 4 10km以上 2 60 1018 弱いしゅう雪
19 17:00 北北西 4 10km以上 3 56 1018
19 16:00 北北西 6 10km以上 3 56 1019
19 15:00 北北西 7 10km以上 4 48 1018
19 14:00 北西 5 10km以上 4 45 1018
19 13:00 西北西 4 10km以上 3 48 1018
19 12:00 北西 5 10km以上 3 52 1019
19 11:00 北西 6 10km以上 3 48 1019
19 10:00 北西 6 10km以上 3 52 1018
19 09:00 北西 6 10km以上 2 51 1018
19 08:00 北西 8 10km以上 0 59 1018
19 07:00 北西 8 10km以上 -1 64 1018
19 06:40 北西 8 10km以上 -1 69 1017
18 20:00 不定 2 10km以上 -1 69 1016
18 19:00 南東 2 10km以上 -1 64 1016
18 18:00 北北西 4 10km以上 -1 69 1015
18 17:00 不定 2 10km以上 -1 69 1015
18 16:00 西北西 6 10km以上 0 69 1014 弱いしゅう雪
18 15:00 西北西 10 10km以上 1 55 1013
18 14:00 西北西 7 10km以上 0 64 1013 弱いしゅう雪
18 13:00 北北西 8 10km以上 1 64 1014 弱いしゅう雪
18 12:00 西北西 6 10km以上 2 48 1014
18 11:00 北西 7 10km以上 1 55 1014 弱いしゅう雪
18 10:00 西北西 7 10km以上 0 55 1015
18 09:00 北西 4 10km以上 -1 59 1014 弱いしゅう雪
18 08:00 3 10km以上 -2 74 1013 弱いしゅう雪
18 07:00 北西 6 10km以上 -3 74 1012 弱いしゅう雪
18 06:40 北西 8 10km以上 -3 74 1012 弱いしゅう雪
RJSF 191100Z 35005KT 9999 FEW020 SCT045 01/M04 Q1018
RJSF 191000Z 33007KT 9999 -SHSN FEW020 SCT040 02/M04 Q1018
RJSF 190900Z 34007KT 9999 -SHSN FEW020 BKN045 BKN050 02/M05 Q1018
RJSF 190800Z 33008KT 9999 FEW020 BKN045 BKN050 03/M05 Q1018
RJSF 190700Z 33011KT 9999 FEW030 BKN040 BKN050 03/M05 Q1019
RJSF 190600Z 33014KT 9999 FEW030 SCT040 BKN050 04/M06 Q1018
RJSF 190500Z 32010G20KT 270V020 9999 FEW020 SCT040 BKN050 04/M07 Q1018
RJSF 190400Z 30008G18KT 240V360 9999 FEW020 BKN040 03/M07 Q1018
RJSF 190300Z 31010G23KT 280V350 9999 FEW020 SCT040 03/M06 Q1019
RJSF 190200Z 32012G27KT 250V340 9999 FEW020 03/M07 Q1019
RJSF 190100Z 32012G23KT 260V360 9999 FEW020 03/M06 Q1018
RJSF 190000Z 31012G29KT 270V010 9999 FEW020 02/M07 Q1018
RJSF 182300Z 32016KT 290V350 9999 FEW020 00/M07 Q1018
RJSF 182200Z 32016KT 9999 FEW020 M01/M07 Q1018
RJSF 182140Z 32015G26KT 270V360 9999 FEW020 M01/M06 Q1017 RMK 1CU020 A3006
RJSF 181100Z VRB03KT 9999 FEW015 SCT030 M01/M06 Q1016
RJSF 181000Z 14004KT 090V170 9999 FEW015 SCT030 M01/M07 Q1016
RJSF 180900Z 34008KT 300V020 9999 FEW015 SCT030 M01/M06 Q1015
RJSF 180800Z VRB04KT 9999 FEW010 SCT030 M01/M06 Q1015
RJSF 180700Z 30011G21KT 260V340 9999 -SHSN FEW010 SCT030 00/M05 Q1014
RJSF 180600Z 29019G29KT 260V330 9999 FEW010 SCT030 01/M07 Q1013
RJSF 180500Z 29014KT 250V340 9999 -SHSN FEW005 SCT025 BKN035 00/M06 Q1013
RJSF 180400Z 34015KT 9999 -SHSN FEW020 SCT030 BKN040 01/M05 Q1014
RJSF 180300Z 30012KT 270V340 9999 FEW020 SCT030 BKN040 02/M08 Q1014
RJSF 180200Z 31013G23KT 260V350 9999 -SHSN FEW020 SCT035 01/M07 Q1014
RJSF 180100Z 30013KT 270V350 9999 FEW020 SCT040 M00/M08 Q1015
RJSF 180000Z 31008KT 260V350 9999 -SHSN FEW020 SCT030 BKN040 M01/M08 Q1014
RJSF 172300Z VRB06KT 9999 -SHSN FEW020 SCT030 BKN040 M02/M06 Q1013
RJSF 172200Z 31011G27KT 280V010 9999 -SHSN FEW015 SCT030 M03/M07 Q1012
RJSF 172140Z 31015G26KT 9999 -SHSN FEW015 SCT025 BKN030 M03/M07 Q1012 RMK 1CU015 3CU025 5CU030 A2989